sensor_id;sensor_type;location;lat;lon;timestamp;pressure;altitude;pressure_sealevel;temperature;humidity
39891;BME280;25564;53.312;9.790;2022-11-25T00:02:26;100646.88;;;4.12;98.97
39891;BME280;25564;53.312;9.790;2022-11-25T00:04:57;100641.63;;;4.12;98.30
39891;BME280;25564;53.312;9.790;2022-11-25T00:07:29;100638.09;;;4.07;97.11
39891;BME280;25564;53.312;9.790;2022-11-25T00:10:01;100626.66;;;3.99;97.87
39891;BME280;25564;53.312;9.790;2022-11-25T00:12:32;100619.72;;;4.05;98.12
39891;BME280;25564;53.312;9.790;2022-11-25T00:15:04;100624.94;;;4.04;97.86
39891;BME280;25564;53.312;9.790;2022-11-25T00:17:35;100624.00;;;3.94;98.27
39891;BME280;25564;53.312;9.790;2022-11-25T00:20:07;100623.16;;;4.00;97.72
39891;BME280;25564;53.312;9.790;2022-11-25T00:22:38;100630.16;;;3.98;97.86
39891;BME280;25564;53.312;9.790;2022-11-25T00:25:09;100633.66;;;3.98;98.51
39891;BME280;25564;53.312;9.790;2022-11-25T00:27:41;100624.88;;;3.96;98.24
39891;BME280;25564;53.312;9.790;2022-11-25T00:30:12;100628.41;;;4.00;96.99
39891;BME280;25564;53.312;9.790;2022-11-25T00:32:44;100630.16;;;3.98;97.50
39891;BME280;25564;53.312;9.790;2022-11-25T00:35:15;100616.97;;;3.91;98.26
39891;BME280;25564;53.312;9.790;2022-11-25T00:37:47;100624.03;;;3.99;98.71
39891;BME280;25564;53.312;9.790;2022-11-25T00:40:19;100621.41;;;3.99;98.02
39891;BME280;25564;53.312;9.790;2022-11-25T00:42:52;100621.41;;;3.99;98.11
39891;BME280;25564;53.312;9.790;2022-11-25T00:45:44;100617.88;;;3.97;97.29
39891;BME280;25564;53.312;9.790;2022-11-25T00:48:29;100612.59;;;3.90;97.76
39891;BME280;25564;53.312;9.790;2022-11-25T00:51:11;100614.34;;;3.91;97.41
39891;BME280;25564;53.312;9.790;2022-11-25T00:53:53;100612.56;;;3.87;98.16
39891;BME280;25564;53.312;9.790;2022-11-25T00:56:30;100609.06;;;3.87;97.36
39891;BME280;25564;53.312;9.790;2022-11-25T00:59:05;100602.06;;;3.86;98.23
39891;BME280;25564;53.312;9.790;2022-11-25T01:01:39;100589.84;;;3.91;97.70
39891;BME280;25564;53.312;9.790;2022-11-25T01:04:14;100589.84;;;3.89;97.84
39891;BME280;25564;53.312;9.790;2022-11-25T01:06:47;100591.56;;;3.87;97.59
39891;BME280;25564;53.312;9.790;2022-11-25T01:09:18;100590.75;;;3.93;98.35
39891;BME280;25564;53.312;9.790;2022-11-25T01:11:50;100590.72;;;3.90;98.25
39891;BME280;25564;53.312;9.790;2022-11-25T01:14:22;100591.63;;;3.93;98.07
39891;BME280;25564;53.312;9.790;2022-11-25T01:16:54;100601.28;;;3.98;98.24
39891;BME280;25564;53.312;9.790;2022-11-25T01:19:25;100599.50;;;3.93;98.02
39891;BME280;25564;53.312;9.790;2022-11-25T01:21:57;100598.66;;;3.98;97.32
39891;BME280;25564;53.312;9.790;2022-11-25T01:24:28;100593.34;;;3.90;98.29
39891;BME280;25564;53.312;9.790;2022-11-25T01:26:59;100579.31;;;3.86;97.83
39891;BME280;25564;53.312;9.790;2022-11-25T01:29:30;100598.59;;;3.91;97.83
39891;BME280;25564;53.312;9.790;2022-11-25T01:32:02;100599.47;;;3.90;97.76
39891;BME280;25564;53.312;9.790;2022-11-25T01:34:33;100600.34;;;3.89;97.19
39891;BME280;25564;53.312;9.790;2022-11-25T01:37:05;100619.63;;;3.96;98.54
39891;BME280;25564;53.312;9.790;2022-11-25T01:39:36;100616.09;;;3.92;97.93
39891;BME280;25564;53.312;9.790;2022-11-25T01:42:09;100621.34;;;3.92;98.29
39891;BME280;25564;53.312;9.790;2022-11-25T01:44:41;100610.84;;;3.89;98.30
39891;BME280;25564;53.312;9.790;2022-11-25T01:47:22;100622.22;;;3.91;97.88
39891;BME280;25564;53.312;9.790;2022-11-25T01:50:02;100608.16;;;3.83;97.38
39891;BME280;25564;53.312;9.790;2022-11-25T01:52:37;100606.38;;;3.79;98.40
39891;BME280;25564;53.312;9.790;2022-11-25T01:55:14;100616.88;;;3.81;97.17
39891;BME280;25564;53.312;9.790;2022-11-25T01:57:53;100598.41;;;3.67;98.19
39891;BME280;25564;53.312;9.790;2022-11-25T02:00:26;100617.66;;;3.69;98.17
39891;BME280;25564;53.312;9.790;2022-11-25T02:02:58;100611.50;;;3.66;98.24
39891;BME280;25564;53.312;9.790;2022-11-25T02:05:51;100603.59;;;3.61;97.43
39891;BME280;25564;53.312;9.790;2022-11-25T02:08:26;100602.72;;;3.62;96.65
39891;BME280;25564;53.312;9.790;2022-11-25T02:10:59;100602.69;;;3.59;97.97
39891;BME280;25564;53.312;9.790;2022-11-25T02:13:31;100596.56;;;3.57;98.12
39891;BME280;25564;53.312;9.790;2022-11-25T02:16:03;100601.81;;;3.57;98.01
39891;BME280;25564;53.312;9.790;2022-11-25T02:18:35;100600.94;;;3.58;97.29
39891;BME280;25564;53.312;9.790;2022-11-25T02:21:07;100598.31;;;3.58;97.61
39891;BME280;25564;53.312;9.790;2022-11-25T02:23:39;100601.84;;;3.60;97.39
39891;BME280;25564;53.312;9.790;2022-11-25T02:26:16;100589.59;;;3.59;98.14
39891;BME280;25564;53.312;9.790;2022-11-25T02:28:47;100584.38;;;3.62;98.08
39891;BME280;25564;53.312;9.790;2022-11-25T02:31:20;100590.56;;;3.72;98.01
39891;BME280;25564;53.312;9.790;2022-11-25T02:33:51;100587.94;;;3.70;98.32
39891;BME280;25564;53.312;9.790;2022-11-25T02:36:23;100583.63;;;3.78;98.25
39891;BME280;25564;53.312;9.790;2022-11-25T02:38:58;100587.19;;;3.85;98.98
39891;BME280;25564;53.312;9.790;2022-11-25T02:41:33;100594.22;;;3.90;98.59
39891;BME280;25564;53.312;9.790;2022-11-25T02:44:05;100587.25;;;3.96;98.16
39891;BME280;25564;53.312;9.790;2022-11-25T02:46:37;100596.03;;;4.01;98.89
39891;BME280;25564;53.312;9.790;2022-11-25T02:49:08;100598.69;;;4.04;98.67
39891;BME280;25564;53.312;9.790;2022-11-25T02:51:42;100599.59;;;4.07;98.54
39891;BME280;25564;53.312;9.790;2022-11-25T02:54:15;100606.59;;;4.10;98.54
39891;BME280;25564;53.312;9.790;2022-11-25T02:56:46;100604.00;;;4.11;98.24
39891;BME280;25564;53.312;9.790;2022-11-25T02:59:18;100595.22;;;4.08;98.17
39891;BME280;25564;53.312;9.790;2022-11-25T03:01:49;100589.91;;;4.02;98.30
39891;BME280;25564;53.312;9.790;2022-11-25T03:04:20;100592.56;;;4.03;98.87
39891;BME280;25564;53.312;9.790;2022-11-25T03:06:52;100587.28;;;4.00;98.15
39891;BME280;25564;53.312;9.790;2022-11-25T03:09:23;100594.28;;;4.01;98.01
39891;BME280;25564;53.312;9.790;2022-11-25T03:11:54;100596.94;;;4.04;98.20
39891;BME280;25564;53.312;9.790;2022-11-25T03:14:44;100589.94;;;4.05;98.09
39891;BME280;25564;53.312;9.790;2022-11-25T03:17:15;100593.47;;;4.07;98.94
39891;BME280;25564;53.312;9.790;2022-11-25T03:19:47;100592.63;;;4.11;99.41
39891;BME280;25564;53.312;9.790;2022-11-25T03:22:18;100596.13;;;4.11;98.99
39891;BME280;25564;53.312;9.790;2022-11-25T03:24:49;100594.38;;;4.12;98.73
39891;BME280;25564;53.312;9.790;2022-11-25T03:27:21;100594.34;;;4.09;98.80
39891;BME280;25564;53.312;9.790;2022-11-25T03:29:52;100600.50;;;4.11;98.17
39891;BME280;25564;53.312;9.790;2022-11-25T03:32:24;100592.63;;;4.11;99.06
39891;BME280;25564;53.312;9.790;2022-11-25T03:34:55;100597.00;;;4.10;99.31
39891;BME280;25564;53.312;9.790;2022-11-25T03:37:26;100597.88;;;4.12;98.87
39891;BME280;25564;53.312;9.790;2022-11-25T03:39:58;100604.91;;;4.15;98.16
39891;BME280;25564;53.312;9.790;2022-11-25T03:42:29;100594.38;;;4.12;98.35
39891;BME280;25564;53.312;9.790;2022-11-25T03:45:01;100607.50;;;4.13;98.83
39891;BME280;25564;53.312;9.790;2022-11-25T03:47:33;100616.25;;;4.14;99.19
39891;BME280;25564;53.312;9.790;2022-11-25T03:50:04;100595.22;;;4.09;98.77
39891;BME280;25564;53.312;9.790;2022-11-25T03:52:37;100600.50;;;4.11;98.47
39891;BME280;25564;53.312;9.790;2022-11-25T03:55:09;100594.34;;;4.07;98.38
39891;BME280;25564;53.312;9.790;2022-11-25T03:57:42;100595.22;;;4.08;98.27
39891;BME280;25564;53.312;9.790;2022-11-25T04:00:14;100589.97;;;4.06;98.25
39891;BME280;25564;53.312;9.790;2022-11-25T04:02:45;100596.94;;;4.06;97.36
39891;BME280;25564;53.312;9.790;2022-11-25T04:05:16;100596.94;;;4.06;98.44
39891;BME280;25564;53.312;9.790;2022-11-25T04:07:48;100592.56;;;4.06;97.91
39891;BME280;25564;53.312;9.790;2022-11-25T04:10:26;100592.56;;;4.06;98.15
39891;BME280;25564;53.312;9.790;2022-11-25T04:12:58;100582.06;;;4.05;98.75
39891;BME280;25564;53.312;9.790;2022-11-25T04:15:29;100582.06;;;4.06;98.08
39891;BME280;25564;53.312;9.790;2022-11-25T04:18:00;100582.09;;;4.08;98.34
39891;BME280;25564;53.312;9.790;2022-11-25T04:20:32;100598.75;;;4.13;98.63
39891;BME280;25564;53.312;9.790;2022-11-25T04:23:03;100584.75;;;4.14;98.04
39891;BME280;25564;53.312;9.790;2022-11-25T04:25:36;100587.38;;;4.12;98.61
39891;BME280;25564;53.312;9.790;2022-11-25T04:28:08;100585.63;;;4.11;98.42
39891;BME280;25564;53.312;9.790;2022-11-25T04:30:39;100576.84;;;4.11;97.83
39891;BME280;25564;53.312;9.790;2022-11-25T04:33:10;100572.50;;;4.14;98.12
39891;BME280;25564;53.312;9.790;2022-11-25T04:35:42;100568.09;;;4.10;98.13
39891;BME280;25564;53.312;9.790;2022-11-25T04:38:13;100583.00;;;4.13;98.10
39891;BME280;25564;53.312;9.790;2022-11-25T04:40:44;100583.88;;;4.15;98.10
39891;BME280;25564;53.312;9.790;2022-11-25T04:43:16;100585.63;;;4.13;98.22
39891;BME280;25564;53.312;9.790;2022-11-25T04:45:48;100582.13;;;4.15;98.93
39891;BME280;25564;53.312;9.790;2022-11-25T04:48:40;100580.38;;;4.13;98.78
39891;BME280;25564;53.312;9.790;2022-11-25T04:51:11;100576.00;;;4.19;98.71
39891;BME280;25564;53.312;9.790;2022-11-25T04:53:43;100580.38;;;4.19;98.08
39891;BME280;25564;53.312;9.790;2022-11-25T04:56:17;100581.28;;;4.24;98.43
39891;BME280;25564;53.312;9.790;2022-11-25T04:58:49;100582.16;;;4.23;98.60
39891;BME280;25564;53.312;9.790;2022-11-25T05:01:39;100570.78;;;4.24;98.17
39891;BME280;25564;53.312;9.790;2022-11-25T05:04:10;100576.94;;;4.29;98.68
39891;BME280;25564;53.312;9.790;2022-11-25T05:06:41;100589.22;;;4.32;99.05
39891;BME280;25564;53.312;9.790;2022-11-25T05:09:13;100591.84;;;4.33;99.16
39891;BME280;25564;53.312;9.790;2022-11-25T05:11:44;100586.59;;;4.33;98.72
39891;BME280;25564;53.312;9.790;2022-11-25T05:14:16;100599.75;;;4.36;98.57
39891;BME280;25564;53.312;9.790;2022-11-25T05:16:47;100602.41;;;4.41;98.54
39891;BME280;25564;53.312;9.790;2022-11-25T05:19:18;100606.81;;;4.48;98.81
39891;BME280;25564;53.312;9.790;2022-11-25T05:21:50;100600.69;;;4.52;99.33
39891;BME280;25564;53.312;9.790;2022-11-25T05:24:22;100593.69;;;4.52;98.55
39891;BME280;25564;53.312;9.790;2022-11-25T05:26:54;100607.75;;;4.60;98.70
39891;BME280;25564;53.312;9.790;2022-11-25T05:29:25;100618.28;;;4.64;99.51
39891;BME280;25564;53.312;9.790;2022-11-25T05:31:57;100609.53;;;4.65;99.08
39891;BME280;25564;53.312;9.790;2022-11-25T05:34:28;100601.66;;;4.71;99.24
39891;BME280;25564;53.312;9.790;2022-11-25T05:36:59;100606.06;;;4.75;99.02
39891;BME280;25564;53.312;9.790;2022-11-25T05:39:31;100600.81;;;4.75;98.20
39891;BME280;25564;53.312;9.790;2022-11-25T05:42:02;100586.78;;;4.70;99.12
39891;BME280;25564;53.312;9.790;2022-11-25T05:44:34;100592.91;;;4.72;99.10
39891;BME280;25564;53.312;9.790;2022-11-25T05:47:05;100583.25;;;4.69;99.25
39891;BME280;25564;53.312;9.790;2022-11-25T05:49:37;100584.16;;;4.70;99.30
39891;BME280;25564;53.312;9.790;2022-11-25T05:52:08;100584.13;;;4.65;98.87
39891;BME280;25564;53.312;9.790;2022-11-25T05:54:39;100591.13;;;4.66;99.50
39891;BME280;25564;53.312;9.790;2022-11-25T05:57:11;100592.88;;;4.64;98.41
39891;BME280;25564;53.312;9.790;2022-11-25T05:59:42;100583.25;;;4.63;98.92
39891;BME280;25564;53.312;9.790;2022-11-25T06:02:13;100583.25;;;4.65;98.90
39891;BME280;25564;53.312;9.790;2022-11-25T06:04:45;100585.84;;;4.62;98.55
39891;BME280;25564;53.312;9.790;2022-11-25T06:07:16;100577.97;;;4.62;98.94
39891;BME280;25564;53.312;9.790;2022-11-25T06:09:49;100574.47;;;4.63;98.92
39891;BME280;25564;53.312;9.790;2022-11-25T06:12:20;100569.22;;;4.61;98.66
39891;BME280;25564;53.312;9.790;2022-11-25T06:14:51;100569.22;;;4.61;99.40
39891;BME280;25564;53.312;9.790;2022-11-25T06:17:23;100585.00;;;4.69;99.16
39891;BME280;25564;53.312;9.790;2022-11-25T06:19:54;100573.63;;;4.68;98.59
39891;BME280;25564;53.312;9.790;2022-11-25T06:22:26;100569.25;;;4.72;99.38
39891;BME280;25564;53.312;9.790;2022-11-25T06:24:57;100575.41;;;4.75;98.59
39891;BME280;25564;53.312;9.790;2022-11-25T06:27:33;100568.38;;;4.74;98.68
39891;BME280;25564;53.312;9.790;2022-11-25T06:30:26;100577.16;;;4.79;99.09
39891;BME280;25564;53.312;9.790;2022-11-25T06:32:57;100579.81;;;4.79;99.05
39891;BME280;25564;53.312;9.790;2022-11-25T06:35:28;100587.72;;;4.84;98.77
39891;BME280;25564;53.312;9.790;2022-11-25T06:38:00;100583.34;;;4.90;99.74
39891;BME280;25564;53.312;9.790;2022-11-25T06:40:31;100587.72;;;4.88;98.83
39891;BME280;25564;53.312;9.790;2022-11-25T06:43:03;100607.03;;;4.97;99.33
39891;BME280;25564;53.312;9.790;2022-11-25T06:45:35;100617.56;;;5.03;99.46
39891;BME280;25564;53.312;9.790;2022-11-25T06:48:06;100626.34;;;5.08;99.77
39891;BME280;25564;53.312;9.790;2022-11-25T06:50:37;100629.88;;;5.16;99.84
39891;BME280;25564;53.312;9.790;2022-11-25T06:53:09;100634.25;;;5.24;99.53
39891;BME280;25564;53.312;9.790;2022-11-25T06:55:40;100627.25;;;5.28;99.64
39891;BME280;25564;53.312;9.790;2022-11-25T06:58:11;100618.50;;;5.32;100.00
39891;BME280;25564;53.312;9.790;2022-11-25T07:01:14;100619.38;;;5.34;99.53
39891;BME280;25564;53.312;9.790;2022-11-25T07:03:52;100622.03;;;5.39;99.30
39891;BME280;25564;53.312;9.790;2022-11-25T07:06:24;100610.63;;;5.35;100.00
39891;BME280;25564;53.312;9.790;2022-11-25T07:08:56;100612.38;;;5.33;99.14
39891;BME280;25564;53.312;9.790;2022-11-25T07:11:32;100618.50;;;5.34;100.00
39891;BME280;25564;53.312;9.790;2022-11-25T07:14:09;100611.47;;;5.26;99.15
39891;BME280;25564;53.312;9.790;2022-11-25T07:16:44;100614.97;;;5.29;100.00
39891;BME280;25564;53.312;9.790;2022-11-25T07:19:17;100607.97;;;5.31;100.00
39891;BME280;25564;53.312;9.790;2022-11-25T07:21:48;100612.38;;;5.33;100.00
39891;BME280;25564;53.312;9.790;2022-11-25T07:24:20;100611.47;;;5.30;99.09
39891;BME280;25564;53.312;9.790;2022-11-25T07:26:51;100622.00;;;5.33;100.00
39891;BME280;25564;53.312;9.790;2022-11-25T07:29:22;100624.63;;;5.28;100.00
39891;BME280;25564;53.312;9.790;2022-11-25T07:32:14;100636.94;;;5.37;99.74
39891;BME280;25564;53.312;9.790;2022-11-25T07:34:49;100643.09;;;5.45;99.69
39891;BME280;25564;53.312;9.790;2022-11-25T07:37:21;100627.31;;;5.48;99.79
39891;BME280;25564;53.312;9.790;2022-11-25T07:39:52;100642.22;;;5.58;99.58
39891;BME280;25564;53.312;9.790;2022-11-25T07:42:24;100629.97;;;5.63;100.00
39891;BME280;25564;53.312;9.790;2022-11-25T07:44:55;100630.84;;;5.68;99.63
39891;BME280;25564;53.312;9.790;2022-11-25T07:47:26;100643.13;;;5.72;99.76
39891;BME280;25564;53.312;9.790;2022-11-25T07:49:58;100644.03;;;5.85;100.00
39891;BME280;25564;53.312;9.790;2022-11-25T07:52:29;100652.84;;;5.90;100.00
39891;BME280;25564;53.312;9.790;2022-11-25T07:55:00;100657.22;;;5.99;99.70
39891;BME280;25564;53.312;9.790;2022-11-25T07:57:32;100648.44;;;6.00;100.00
39891;BME280;25564;53.312;9.790;2022-11-25T08:00:04;100650.19;;;6.07;100.00
39891;BME280;25564;53.312;9.790;2022-11-25T08:02:36;100652.84;;;6.14;100.00
39891;BME280;25564;53.312;9.790;2022-11-25T08:05:08;100650.19;;;6.16;100.00
39891;BME280;25564;53.312;9.790;2022-11-25T08:07:39;100655.44;;;6.25;100.00
39891;BME280;25564;53.312;9.790;2022-11-25T08:10:11;100656.31;;;6.29;99.86
39891;BME280;25564;53.312;9.790;2022-11-25T08:12:42;100660.69;;;6.34;100.00
39891;BME280;25564;53.312;9.790;2022-11-25T08:15:13;100654.53;;;6.41;100.00
39891;BME280;25564;53.312;9.790;2022-11-25T08:17:45;100660.66;;;6.46;100.00
39891;BME280;25564;53.312;9.790;2022-11-25T08:20:17;100660.66;;;6.49;100.00
39891;BME280;25564;53.312;9.790;2022-11-25T08:22:49;100657.16;;;6.52;100.00
39891;BME280;25564;53.312;9.790;2022-11-25T08:25:20;100664.16;;;6.53;100.00
39891;BME280;25564;53.312;9.790;2022-11-25T08:27:52;100661.53;;;6.57;100.00
39891;BME280;25564;53.312;9.790;2022-11-25T08:30:23;100662.41;;;6.60;100.00
39891;BME280;25564;53.312;9.790;2022-11-25T08:32:56;100658.88;;;6.57;100.00
39891;BME280;25564;53.312;9.790;2022-11-25T08:35:28;100668.53;;;6.66;100.00
39891;BME280;25564;53.312;9.790;2022-11-25T08:37:59;100667.66;;;6.66;100.00
39891;BME280;25564;53.312;9.790;2022-11-25T08:40:33;100670.28;;;6.73;100.00
39891;BME280;25564;53.312;9.790;2022-11-25T08:43:04;100671.16;;;6.74;100.00
39891;BME280;25564;53.312;9.790;2022-11-25T08:45:37;100682.56;;;6.80;100.00
39891;BME280;25564;53.312;9.790;2022-11-25T08:48:09;100679.94;;;6.79;100.00
39891;BME280;25564;53.312;9.790;2022-11-25T08:50:51;100679.91;;;6.85;100.00
39891;BME280;25564;53.312;9.790;2022-11-25T08:53:23;100683.44;;;6.87;100.00
39891;BME280;25564;53.312;9.790;2022-11-25T08:55:54;100680.81;;;6.84;100.00
39891;BME280;25564;53.312;9.790;2022-11-25T08:58:25;100691.34;;;6.85;100.00
39891;BME280;25564;53.312;9.790;2022-11-25T09:00:57;100689.59;;;6.87;100.00
39891;BME280;25564;53.312;9.790;2022-11-25T09:03:31;100683.41;;;6.90;100.00
39891;BME280;25564;53.312;9.790;2022-11-25T09:06:03;100683.41;;;6.93;100.00
39891;BME280;25564;53.312;9.790;2022-11-25T09:08:35;100685.16;;;6.97;100.00
39891;BME280;25564;53.312;9.790;2022-11-25T09:11:08;100686.03;;;6.98;100.00
39891;BME280;25564;53.312;9.790;2022-11-25T09:13:40;100688.66;;;7.02;100.00
39891;BME280;25564;53.312;9.790;2022-11-25T09:16:11;100695.66;;;7.11;100.00
39891;BME280;25564;53.312;9.790;2022-11-25T09:18:43;100698.28;;;7.15;100.00
39891;BME280;25564;53.312;9.790;2022-11-25T09:21:16;100702.66;;;7.19;100.00
39891;BME280;25564;53.312;9.790;2022-11-25T09:23:49;100700.91;;;7.21;100.00
39891;BME280;25564;53.312;9.790;2022-11-25T09:26:24;100705.28;;;7.24;100.00
39891;BME280;25564;53.312;9.790;2022-11-25T09:28:56;100713.19;;;7.26;100.00
39891;BME280;25564;53.312;9.790;2022-11-25T09:31:27;100708.81;;;7.23;100.00
39891;BME280;25564;53.312;9.790;2022-11-25T09:33:59;100727.25;;;7.28;100.00
39891;BME280;25564;53.312;9.790;2022-11-25T09:36:30;100714.06;;;7.26;100.00
39891;BME280;25564;53.312;9.790;2022-11-25T09:39:02;100709.63;;;7.30;100.00
39891;BME280;25564;53.312;9.790;2022-11-25T09:41:53;100714.03;;;7.31;100.00
39891;BME280;25564;53.312;9.790;2022-11-25T09:44:53;100724.56;;;7.37;100.00
39891;BME280;25564;53.312;9.790;2022-11-25T09:50:52;100713.94;;;7.46;100.00
39891;BME280;25564;53.312;9.790;2022-11-25T09:53:49;100719.19;;;7.53;100.00
39891;BME280;25564;53.312;9.790;2022-11-25T09:56:40;100727.06;;;7.63;100.00
39891;BME280;25564;53.312;9.790;2022-11-25T09:59:24;100732.31;;;7.67;100.00
39891;BME280;25564;53.312;9.790;2022-11-25T10:02:13;100714.72;;;7.69;100.00
39891;BME280;25564;53.312;9.790;2022-11-25T10:04:52;100728.78;;;7.73;100.00
39891;BME280;25564;53.312;9.790;2022-11-25T10:07:33;100727.91;;;7.72;100.00
39891;BME280;25564;53.312;9.790;2022-11-25T10:10:09;100723.47;;;7.74;100.00
39891;BME280;25564;53.312;9.790;2022-11-25T10:12:46;100726.13;;;7.74;100.00
39891;BME280;25564;53.312;9.790;2022-11-25T10:15:39;100733.16;;;7.77;100.00
39891;BME280;25564;53.312;9.790;2022-11-25T10:18:22;100728.72;;;7.80;100.00
39891;BME280;25564;53.312;9.790;2022-11-25T10:20:55;100728.69;;;7.85;100.00
39891;BME280;25564;53.312;9.790;2022-11-25T10:23:31;100724.28;;;7.87;100.00
39891;BME280;25564;53.312;9.790;2022-11-25T10:26:28;100731.28;;;7.96;100.00
39891;BME280;25564;53.312;9.790;2022-11-25T10:31:44;100731.22;;;8.03;100.00
39891;BME280;25564;53.312;9.790;2022-11-25T10:34:27;100736.47;;;8.08;100.00
39891;BME280;25564;53.312;9.790;2022-11-25T10:37:01;100733.81;;;8.11;100.00
39891;BME280;25564;53.312;9.790;2022-11-25T10:39:34;100747.00;;;8.15;100.00
39891;BME280;25564;53.312;9.790;2022-11-25T10:42:14;100738.19;;;8.15;100.00
39891;BME280;25564;53.312;9.790;2022-11-25T10:44:47;100745.22;;;8.19;100.00
39891;BME280;25564;53.312;9.790;2022-11-25T10:47:35;100747.81;;;8.25;100.00
39891;BME280;25564;53.312;9.790;2022-11-25T10:52:56;100749.56;;;8.26;100.00
39891;BME280;25564;53.312;9.790;2022-11-25T10:55:31;100748.69;;;8.26;100.00
39891;BME280;25564;53.312;9.790;2022-11-25T10:58:37;100753.94;;;8.29;100.00
39891;BME280;25564;53.312;9.790;2022-11-25T11:01:13;100758.31;;;8.34;100.00
39891;BME280;25564;53.312;9.790;2022-11-25T11:03:52;100753.84;;;8.41;100.00
39891;BME280;25564;53.312;9.790;2022-11-25T11:09:02;100740.66;;;8.39;100.00
39891;BME280;25564;53.312;9.790;2022-11-25T11:11:46;100748.56;;;8.41;100.00
39891;BME280;25564;53.312;9.790;2022-11-25T11:14:19;100750.28;;;8.46;100.00
39891;BME280;25564;53.312;9.790;2022-11-25T11:16:53;100754.66;;;8.50;100.00
39891;BME280;25564;53.312;9.790;2022-11-25T11:19:28;100756.41;;;8.51;100.00
39891;BME280;25564;53.312;9.790;2022-11-25T11:22:15;100755.44;;;8.63;100.00
39891;BME280;25564;53.312;9.790;2022-11-25T11:24:46;100756.25;;;8.70;100.00
39891;BME280;25564;53.312;9.790;2022-11-25T11:27:21;100764.09;;;8.79;100.00
39891;BME280;25564;53.312;9.790;2022-11-25T11:32:53;100769.19;;;9.00;100.00
39891;BME280;25564;53.312;9.790;2022-11-25T11:35:46;100775.31;;;9.05;100.00
39891;BME280;25564;53.312;9.790;2022-11-25T11:38:36;100765.63;;;9.04;100.00
39891;BME280;25564;53.312;9.790;2022-11-25T11:47:22;100776.28;;;8.97;100.00
39891;BME280;25564;53.312;9.790;2022-11-25T11:50:31;100773.69;;;8.92;100.00
39891;BME280;25564;53.312;9.790;2022-11-25T11:59:17;100771.91;;;8.93;100.00
39891;BME280;25564;53.312;9.790;2022-11-25T12:04:44;100782.44;;;8.99;100.00
39891;BME280;25564;53.312;9.790;2022-11-25T12:07:19;100781.50;;;9.03;100.00
39891;BME280;25564;53.312;9.790;2022-11-25T12:09:59;100784.13;;;9.06;100.00
39891;BME280;25564;53.312;9.790;2022-11-25T12:12:43;100785.84;;;9.11;100.00
39891;BME280;25564;53.312;9.790;2022-11-25T12:18:07;100772.56;;;9.14;100.00
39891;BME280;25564;53.312;9.790;2022-11-25T12:20:49;100779.56;;;9.22;100.00
39891;BME280;25564;53.312;9.790;2022-11-25T12:23:43;100778.66;;;9.23;100.00
39891;BME280;25564;53.312;9.790;2022-11-25T12:26:28;100775.06;;;9.27;100.00
39891;BME280;25564;53.312;9.790;2022-11-25T12:29:04;100779.53;;;9.23;100.00
39891;BME280;25564;53.312;9.790;2022-11-25T12:31:47;100775.16;;;9.19;100.00
39891;BME280;25564;53.312;9.790;2022-11-25T12:34:52;100787.50;;;9.22;100.00
39891;BME280;25564;53.312;9.790;2022-11-25T12:37:34;100782.19;;;9.22;100.00
39891;BME280;25564;53.312;9.790;2022-11-25T12:43:08;100801.56;;;9.25;100.00
39891;BME280;25564;53.312;9.790;2022-11-25T12:45:41;100794.47;;;9.29;100.00
39891;BME280;25564;53.312;9.790;2022-11-25T12:48:15;100798.03;;;9.28;100.00
39891;BME280;25564;53.312;9.790;2022-11-25T12:51:03;100809.41;;;9.34;100.00
39891;BME280;25564;53.312;9.790;2022-11-25T12:53:42;100803.28;;;9.29;100.00
39891;BME280;25564;53.312;9.790;2022-11-25T12:56:25;100806.84;;;9.27;100.00
39891;BME280;25564;53.312;9.790;2022-11-25T12:59:14;100802.53;;;9.20;100.00
39891;BME280;25564;53.312;9.790;2022-11-25T13:17:13;100822.97;;;9.02;100.00
39891;BME280;25564;53.312;9.790;2022-11-25T13:19:46;100810.69;;;8.97;100.00
39891;BME280;25564;53.312;9.790;2022-11-25T13:24:58;100817.47;;;9.24;100.00
39891;BME280;25564;53.312;9.790;2022-11-25T13:30:02;100826.97;;;9.40;100.00
39891;BME280;25564;53.312;9.790;2022-11-25T13:32:36;100839.16;;;9.56;100.00
39891;BME280;25564;53.312;9.790;2022-11-25T13:37:51;100848.56;;;9.81;100.00
39891;BME280;25564;53.312;9.790;2022-11-25T13:42:58;100853.69;;;9.97;100.00
39891;BME280;25564;53.312;9.790;2022-11-25T13:45:42;100850.19;;;9.93;100.00
39891;BME280;25564;53.312;9.790;2022-11-25T13:48:33;100848.44;;;9.94;100.00
39891;BME280;25564;53.312;9.790;2022-11-25T13:51:14;100860.81;;;9.93;100.00
39891;BME280;25564;53.312;9.790;2022-11-25T13:53:55;100855.53;;;9.92;100.00
39891;BME280;25564;53.312;9.790;2022-11-25T13:56:28;100860.88;;;9.89;100.00
39891;BME280;25564;53.312;9.790;2022-11-25T14:04:15;100867.03;;;9.91;100.00
39891;BME280;25564;53.312;9.790;2022-11-25T14:07:26;100871.44;;;9.92;100.00
39891;BME280;25564;53.312;9.790;2022-11-25T14:10:12;100869.66;;;9.91;100.00
39891;BME280;25564;53.312;9.790;2022-11-25T14:15:42;100878.53;;;9.90;100.00
39891;BME280;25564;53.312;9.790;2022-11-25T14:24:45;100890.03;;;9.89;100.00
39891;BME280;25564;53.312;9.790;2022-11-25T14:27:26;100886.44;;;9.91;100.00
39891;BME280;25564;53.312;9.790;2022-11-25T14:30:00;100897.03;;;9.93;100.00
39891;BME280;25564;53.312;9.790;2022-11-25T14:32:39;100900.66;;;9.86;100.00
39891;BME280;25564;53.312;9.790;2022-11-25T14:35:16;100891.91;;;9.79;100.00
39891;BME280;25564;53.312;9.790;2022-11-25T14:37:59;100895.47;;;9.75;100.00
39891;BME280;25564;53.312;9.790;2022-11-25T14:40:42;100905.16;;;9.77;100.00
39891;BME280;25564;53.312;9.790;2022-11-25T14:43:20;100908.69;;;9.79;100.00
39891;BME280;25564;53.312;9.790;2022-11-25T14:46:16;100914.00;;;9.76;100.00
39891;BME280;25564;53.312;9.790;2022-11-25T14:48:59;100906.19;;;9.64;100.00
39891;BME280;25564;53.312;9.790;2022-11-25T14:51:35;100914.16;;;9.64;100.00
39891;BME280;25564;53.312;9.790;2022-11-25T14:54:08;100920.31;;;9.66;100.00